sensor_id;sensor_type;location;lat;lon;timestamp;temperature;humidity
3086;DHT22;52812;48.960;9.108;2023-07-22T00:00:25;13.10;99.90
3086;DHT22;52812;48.960;9.108;2023-07-22T00:02:51;13.20;99.90
3086;DHT22;52812;48.960;9.108;2023-07-22T00:05:17;13.30;99.90
3086;DHT22;52812;48.960;9.108;2023-07-22T00:07:49;13.20;99.90
3086;DHT22;52812;48.960;9.108;2023-07-22T00:10:14;13.30;99.90
3086;DHT22;52812;48.960;9.108;2023-07-22T00:12:40;13.20;99.90
3086;DHT22;52812;48.960;9.108;2023-07-22T00:15:06;13.20;99.90
3086;DHT22;52812;48.960;9.108;2023-07-22T00:17:31;13.20;99.90
3086;DHT22;52812;48.960;9.108;2023-07-22T00:19:57;13.20;99.90
3086;DHT22;52812;48.960;9.108;2023-07-22T00:22:22;13.20;99.90
3086;DHT22;52812;48.960;9.108;2023-07-22T00:24:48;13.20;99.90
3086;DHT22;52812;48.960;9.108;2023-07-22T00:27:14;13.30;99.90
3086;DHT22;52812;48.960;9.108;2023-07-22T00:29:39;13.30;99.90
3086;DHT22;52812;48.960;9.108;2023-07-22T00:32:07;13.40;99.90
3086;DHT22;52812;48.960;9.108;2023-07-22T00:34:34;13.40;99.90
3086;DHT22;52812;48.960;9.108;2023-07-22T00:36:59;13.40;99.90
3086;DHT22;52812;48.960;9.108;2023-07-22T00:39:25;13.50;99.90
3086;DHT22;52812;48.960;9.108;2023-07-22T00:41:50;13.50;99.90
3086;DHT22;52812;48.960;9.108;2023-07-22T00:44:16;13.50;99.90
3086;DHT22;52812;48.960;9.108;2023-07-22T00:46:42;13.50;99.90
3086;DHT22;52812;48.960;9.108;2023-07-22T00:49:08;13.50;99.90
3086;DHT22;52812;48.960;9.108;2023-07-22T00:51:34;13.50;99.90
3086;DHT22;52812;48.960;9.108;2023-07-22T00:53:59;13.50;99.90
3086;DHT22;52812;48.960;9.108;2023-07-22T00:56:25;13.50;99.90
3086;DHT22;52812;48.960;9.108;2023-07-22T00:58:52;13.50;99.90
3086;DHT22;52812;48.960;9.108;2023-07-22T01:01:17;13.50;99.90
3086;DHT22;52812;48.960;9.108;2023-07-22T01:03:43;13.40;99.90
3086;DHT22;52812;48.960;9.108;2023-07-22T01:06:09;13.40;99.90
3086;DHT22;52812;48.960;9.108;2023-07-22T01:08:35;13.30;99.90
3086;DHT22;52812;48.960;9.108;2023-07-22T01:11:01;13.20;99.90
3086;DHT22;52812;48.960;9.108;2023-07-22T01:13:26;13.10;99.90
3086;DHT22;52812;48.960;9.108;2023-07-22T01:15:52;13.10;99.90
3086;DHT22;52812;48.960;9.108;2023-07-22T01:18:18;13.00;99.90
3086;DHT22;52812;48.960;9.108;2023-07-22T01:20:43;13.00;99.90
3086;DHT22;52812;48.960;9.108;2023-07-22T01:23:10;12.90;99.90
3086;DHT22;52812;48.960;9.108;2023-07-22T01:25:36;12.90;99.90
3086;DHT22;52812;48.960;9.108;2023-07-22T01:28:02;12.90;99.90
3086;DHT22;52812;48.960;9.108;2023-07-22T01:30:27;12.80;99.90
3086;DHT22;52812;48.960;9.108;2023-07-22T01:32:53;12.70;99.90
3086;DHT22;52812;48.960;9.108;2023-07-22T01:35:19;12.70;99.90
3086;DHT22;52812;48.960;9.108;2023-07-22T01:37:45;12.70;99.90
3086;DHT22;52812;48.960;9.108;2023-07-22T01:40:11;12.60;99.90
3086;DHT22;52812;48.960;9.108;2023-07-22T01:42:38;12.60;99.90
3086;DHT22;52812;48.960;9.108;2023-07-22T01:45:05;12.60;99.90
3086;DHT22;52812;48.960;9.108;2023-07-22T01:47:36;12.50;99.90
3086;DHT22;52812;48.960;9.108;2023-07-22T01:50:02;12.40;99.90
3086;DHT22;52812;48.960;9.108;2023-07-22T01:52:28;12.40;99.90
3086;DHT22;52812;48.960;9.108;2023-07-22T01:54:54;12.50;99.90
3086;DHT22;52812;48.960;9.108;2023-07-22T01:57:19;12.60;99.90
3086;DHT22;52812;48.960;9.108;2023-07-22T01:59:45;12.60;99.90
3086;DHT22;52812;48.960;9.108;2023-07-22T02:02:10;12.70;99.90
3086;DHT22;52812;48.960;9.108;2023-07-22T02:04:36;12.60;99.90
3086;DHT22;52812;48.960;9.108;2023-07-22T02:07:01;12.60;99.90
3086;DHT22;52812;48.960;9.108;2023-07-22T02:09:27;12.50;99.90
3086;DHT22;52812;48.960;9.108;2023-07-22T02:11:52;12.40;99.90
3086;DHT22;52812;48.960;9.108;2023-07-22T02:14:19;12.30;99.90
3086;DHT22;52812;48.960;9.108;2023-07-22T02:16:44;12.40;99.90
3086;DHT22;52812;48.960;9.108;2023-07-22T02:19:10;12.40;99.90
3086;DHT22;52812;48.960;9.108;2023-07-22T02:21:36;12.40;99.90
3086;DHT22;52812;48.960;9.108;2023-07-22T02:24:01;12.30;99.90
3086;DHT22;52812;48.960;9.108;2023-07-22T02:26:27;12.30;99.90
3086;DHT22;52812;48.960;9.108;2023-07-22T02:28:52;12.10;99.90
3086;DHT22;52812;48.960;9.108;2023-07-22T02:31:18;12.10;99.90
3086;DHT22;52812;48.960;9.108;2023-07-22T02:33:43;12.10;99.90
3086;DHT22;52812;48.960;9.108;2023-07-22T02:36:09;12.00;99.90
3086;DHT22;52812;48.960;9.108;2023-07-22T02:38:34;12.00;99.90
3086;DHT22;52812;48.960;9.108;2023-07-22T02:41:04;11.90;99.90
3086;DHT22;52812;48.960;9.108;2023-07-22T02:43:32;11.90;99.90
3086;DHT22;52812;48.960;9.108;2023-07-22T02:45:59;12.00;99.90
3086;DHT22;52812;48.960;9.108;2023-07-22T02:48:25;12.00;99.90
3086;DHT22;52812;48.960;9.108;2023-07-22T02:50:50;12.00;99.90
3086;DHT22;52812;48.960;9.108;2023-07-22T02:53:16;11.90;99.90
3086;DHT22;52812;48.960;9.108;2023-07-22T02:55:41;11.90;99.90
3086;DHT22;52812;48.960;9.108;2023-07-22T02:58:07;11.80;99.90
3086;DHT22;52812;48.960;9.108;2023-07-22T03:00:32;11.90;99.90
3086;DHT22;52812;48.960;9.108;2023-07-22T03:02:58;11.90;99.90
3086;DHT22;52812;48.960;9.108;2023-07-22T03:05:30;11.80;99.90
3086;DHT22;52812;48.960;9.108;2023-07-22T03:07:56;11.80;99.90
3086;DHT22;52812;48.960;9.108;2023-07-22T03:10:23;11.70;99.90
3086;DHT22;52812;48.960;9.108;2023-07-22T03:12:51;11.70;99.90
3086;DHT22;52812;48.960;9.108;2023-07-22T03:15:20;11.70;99.90
3086;DHT22;52812;48.960;9.108;2023-07-22T03:17:46;11.70;99.90
3086;DHT22;52812;48.960;9.108;2023-07-22T03:20:11;11.70;99.90
3086;DHT22;52812;48.960;9.108;2023-07-22T03:22:40;11.60;99.90
3086;DHT22;52812;48.960;9.108;2023-07-22T03:25:08;11.60;99.90
3086;DHT22;52812;48.960;9.108;2023-07-22T03:27:35;11.60;99.90
3086;DHT22;52812;48.960;9.108;2023-07-22T03:30:02;11.50;99.90
3086;DHT22;52812;48.960;9.108;2023-07-22T03:32:28;11.50;99.90
3086;DHT22;52812;48.960;9.108;2023-07-22T03:34:53;11.40;99.90
3086;DHT22;52812;48.960;9.108;2023-07-22T03:37:19;11.40;99.90
3086;DHT22;52812;48.960;9.108;2023-07-22T03:39:45;11.40;99.90
3086;DHT22;52812;48.960;9.108;2023-07-22T03:42:11;11.40;99.90
3086;DHT22;52812;48.960;9.108;2023-07-22T03:44:37;11.40;99.90
3086;DHT22;52812;48.960;9.108;2023-07-22T03:47:02;11.40;99.90
3086;DHT22;52812;48.960;9.108;2023-07-22T03:49:28;11.40;99.90
3086;DHT22;52812;48.960;9.108;2023-07-22T03:51:54;11.40;99.90
3086;DHT22;52812;48.960;9.108;2023-07-22T03:54:19;11.40;99.90
3086;DHT22;52812;48.960;9.108;2023-07-22T03:56:45;11.50;99.90
3086;DHT22;52812;48.960;9.108;2023-07-22T03:59:10;11.50;99.90
3086;DHT22;52812;48.960;9.108;2023-07-22T04:01:36;11.40;99.90
3086;DHT22;52812;48.960;9.108;2023-07-22T04:04:01;11.50;99.90
3086;DHT22;52812;48.960;9.108;2023-07-22T04:06:27;11.50;99.90
3086;DHT22;52812;48.960;9.108;2023-07-22T04:08:52;11.60;99.90
3086;DHT22;52812;48.960;9.108;2023-07-22T04:11:18;11.70;99.90
3086;DHT22;52812;48.960;9.108;2023-07-22T04:13:43;11.70;99.90
3086;DHT22;52812;48.960;9.108;2023-07-22T04:16:09;11.70;99.90
3086;DHT22;52812;48.960;9.108;2023-07-22T04:18:34;11.70;99.90
3086;DHT22;52812;48.960;9.108;2023-07-22T04:21:00;11.70;99.90
3086;DHT22;52812;48.960;9.108;2023-07-22T04:23:26;11.70;99.90
3086;DHT22;52812;48.960;9.108;2023-07-22T04:25:52;11.80;99.90
3086;DHT22;52812;48.960;9.108;2023-07-22T04:28:18;11.90;99.90
3086;DHT22;52812;48.960;9.108;2023-07-22T04:30:55;11.90;99.90
3086;DHT22;52812;48.960;9.108;2023-07-22T04:33:21;12.00;99.90
3086;DHT22;52812;48.960;9.108;2023-07-22T04:35:46;12.00;99.90
3086;DHT22;52812;48.960;9.108;2023-07-22T04:38:12;12.10;99.90
3086;DHT22;52812;48.960;9.108;2023-07-22T04:40:37;12.20;99.90
3086;DHT22;52812;48.960;9.108;2023-07-22T04:43:07;12.30;99.90
3086;DHT22;52812;48.960;9.108;2023-07-22T04:45:33;12.40;99.90
3086;DHT22;52812;48.960;9.108;2023-07-22T04:48:01;12.50;99.90
3086;DHT22;52812;48.960;9.108;2023-07-22T04:50:27;12.60;99.90
3086;DHT22;52812;48.960;9.108;2023-07-22T04:52:53;12.70;99.90
3086;DHT22;52812;48.960;9.108;2023-07-22T04:55:19;12.80;99.90
3086;DHT22;52812;48.960;9.108;2023-07-22T04:57:44;13.00;99.90
3086;DHT22;52812;48.960;9.108;2023-07-22T05:00:13;13.00;99.90
3086;DHT22;52812;48.960;9.108;2023-07-22T05:02:41;13.20;99.90
3086;DHT22;52812;48.960;9.108;2023-07-22T05:05:09;13.20;99.90
3086;DHT22;52812;48.960;9.108;2023-07-22T05:07:35;13.30;99.90
3086;DHT22;52812;48.960;9.108;2023-07-22T05:10:01;13.40;99.90
3086;DHT22;52812;48.960;9.108;2023-07-22T05:12:26;13.60;99.90
3086;DHT22;52812;48.960;9.108;2023-07-22T05:14:52;13.60;99.90
3086;DHT22;52812;48.960;9.108;2023-07-22T05:17:17;13.70;99.90
3086;DHT22;52812;48.960;9.108;2023-07-22T05:19:43;13.90;99.90
3086;DHT22;52812;48.960;9.108;2023-07-22T05:22:09;14.00;99.90
3086;DHT22;52812;48.960;9.108;2023-07-22T05:24:34;14.00;99.90
3086;DHT22;52812;48.960;9.108;2023-07-22T05:27:00;14.20;99.90
3086;DHT22;52812;48.960;9.108;2023-07-22T05:29:25;14.30;99.90
3086;DHT22;52812;48.960;9.108;2023-07-22T05:31:51;14.40;99.90
3086;DHT22;52812;48.960;9.108;2023-07-22T05:34:16;14.60;99.90
3086;DHT22;52812;48.960;9.108;2023-07-22T05:36:42;14.70;99.90
3086;DHT22;52812;48.960;9.108;2023-07-22T05:39:08;14.80;99.90
3086;DHT22;52812;48.960;9.108;2023-07-22T05:41:34;14.80;99.90
3086;DHT22;52812;48.960;9.108;2023-07-22T05:43:59;14.80;99.90
3086;DHT22;52812;48.960;9.108;2023-07-22T05:46:25;14.90;99.90
3086;DHT22;52812;48.960;9.108;2023-07-22T05:48:51;14.90;99.90
3086;DHT22;52812;48.960;9.108;2023-07-22T05:51:17;15.10;99.90
3086;DHT22;52812;48.960;9.108;2023-07-22T05:53:43;15.20;99.90
3086;DHT22;52812;48.960;9.108;2023-07-22T05:56:08;15.50;99.90
3086;DHT22;52812;48.960;9.108;2023-07-22T05:58:34;15.70;99.90
3086;DHT22;52812;48.960;9.108;2023-07-22T06:01:00;16.10;99.90
3086;DHT22;52812;48.960;9.108;2023-07-22T06:03:26;16.60;99.90
3086;DHT22;52812;48.960;9.108;2023-07-22T06:05:51;17.10;99.90
3086;DHT22;52812;48.960;9.108;2023-07-22T06:08:17;17.70;99.90
3086;DHT22;52812;48.960;9.108;2023-07-22T06:10:42;18.30;99.90
3086;DHT22;52812;48.960;9.108;2023-07-22T06:13:08;18.90;99.90
3086;DHT22;52812;48.960;9.108;2023-07-22T06:15:34;19.40;99.90
3086;DHT22;52812;48.960;9.108;2023-07-22T06:18:00;20.30;99.90
3086;DHT22;52812;48.960;9.108;2023-07-22T06:20:26;20.90;99.90
3086;DHT22;52812;48.960;9.108;2023-07-22T06:22:52;21.30;99.90
3086;DHT22;52812;48.960;9.108;2023-07-22T06:25:18;21.60;99.90
3086;DHT22;52812;48.960;9.108;2023-07-22T06:27:43;21.80;99.90
3086;DHT22;52812;48.960;9.108;2023-07-22T06:30:09;22.10;99.90
3086;DHT22;52812;48.960;9.108;2023-07-22T06:32:37;22.00;99.90
3086;DHT22;52812;48.960;9.108;2023-07-22T06:35:03;21.80;99.90
3086;DHT22;52812;48.960;9.108;2023-07-22T06:37:29;21.50;99.90
3086;DHT22;52812;48.960;9.108;2023-07-22T06:39:55;21.50;99.90
3086;DHT22;52812;48.960;9.108;2023-07-22T06:42:21;21.70;99.90
3086;DHT22;52812;48.960;9.108;2023-07-22T06:44:46;22.10;99.90
3086;DHT22;52812;48.960;9.108;2023-07-22T06:47:12;22.40;99.90
3086;DHT22;52812;48.960;9.108;2023-07-22T06:49:38;22.80;99.90
3086;DHT22;52812;48.960;9.108;2023-07-22T06:52:04;23.10;99.90
3086;DHT22;52812;48.960;9.108;2023-07-22T06:54:30;23.10;99.90
3086;DHT22;52812;48.960;9.108;2023-07-22T06:56:55;23.20;99.90
3086;DHT22;52812;48.960;9.108;2023-07-22T06:59:21;23.30;99.90
3086;DHT22;52812;48.960;9.108;2023-07-22T07:01:47;23.70;99.90
3086;DHT22;52812;48.960;9.108;2023-07-22T07:04:12;23.80;99.90
3086;DHT22;52812;48.960;9.108;2023-07-22T07:06:38;24.00;99.90
3086;DHT22;52812;48.960;9.108;2023-07-22T07:09:04;24.00;99.90
3086;DHT22;52812;48.960;9.108;2023-07-22T07:11:31;24.00;99.90
3086;DHT22;52812;48.960;9.108;2023-07-22T07:13:57;23.90;99.90
3086;DHT22;52812;48.960;9.108;2023-07-22T07:16:28;23.90;99.90
3086;DHT22;52812;48.960;9.108;2023-07-22T07:18:54;23.90;99.90
3086;DHT22;52812;48.960;9.108;2023-07-22T07:21:21;24.30;99.90
3086;DHT22;52812;48.960;9.108;2023-07-22T07:23:47;24.30;99.90
3086;DHT22;52812;48.960;9.108;2023-07-22T07:26:13;24.50;99.90
3086;DHT22;52812;48.960;9.108;2023-07-22T07:28:38;24.60;99.90
3086;DHT22;52812;48.960;9.108;2023-07-22T07:31:04;24.30;99.90
3086;DHT22;52812;48.960;9.108;2023-07-22T07:33:30;24.60;99.90
3086;DHT22;52812;48.960;9.108;2023-07-22T07:35:56;24.30;99.90
3086;DHT22;52812;48.960;9.108;2023-07-22T07:38:21;24.40;99.90
3086;DHT22;52812;48.960;9.108;2023-07-22T07:40:55;24.40;99.90
3086;DHT22;52812;48.960;9.108;2023-07-22T07:43:21;24.10;99.90
3086;DHT22;52812;48.960;9.108;2023-07-22T07:45:47;23.90;99.90
3086;DHT22;52812;48.960;9.108;2023-07-22T07:48:12;24.00;99.90
3086;DHT22;52812;48.960;9.108;2023-07-22T07:50:38;24.80;99.90
3086;DHT22;52812;48.960;9.108;2023-07-22T07:53:04;25.30;99.90
3086;DHT22;52812;48.960;9.108;2023-07-22T07:55:30;25.50;99.90
3086;DHT22;52812;48.960;9.108;2023-07-22T07:57:56;25.40;99.90
3086;DHT22;52812;48.960;9.108;2023-07-22T08:00:22;25.50;99.90
3086;DHT22;52812;48.960;9.108;2023-07-22T08:02:47;25.50;99.90
3086;DHT22;52812;48.960;9.108;2023-07-22T08:05:13;25.50;99.90
3086;DHT22;52812;48.960;9.108;2023-07-22T08:07:39;25.50;99.90
3086;DHT22;52812;48.960;9.108;2023-07-22T08:10:06;25.40;99.90
3086;DHT22;52812;48.960;9.108;2023-07-22T08:12:33;25.30;99.90
3086;DHT22;52812;48.960;9.108;2023-07-22T08:14:59;25.30;99.90
3086;DHT22;52812;48.960;9.108;2023-07-22T08:17:25;25.50;99.90
3086;DHT22;52812;48.960;9.108;2023-07-22T08:19:51;25.80;99.90
3086;DHT22;52812;48.960;9.108;2023-07-22T08:22:17;25.30;99.90
3086;DHT22;52812;48.960;9.108;2023-07-22T08:24:43;25.40;99.90
3086;DHT22;52812;48.960;9.108;2023-07-22T08:27:09;25.80;99.90
3086;DHT22;52812;48.960;9.108;2023-07-22T08:29:36;26.10;99.90
3086;DHT22;52812;48.960;9.108;2023-07-22T08:32:01;25.60;99.90
3086;DHT22;52812;48.960;9.108;2023-07-22T08:34:27;25.30;99.90
3086;DHT22;52812;48.960;9.108;2023-07-22T08:36:53;25.40;99.90
3086;DHT22;52812;48.960;9.108;2023-07-22T08:39:19;25.50;99.90
3086;DHT22;52812;48.960;9.108;2023-07-22T08:41:49;25.80;99.90
3086;DHT22;52812;48.960;9.108;2023-07-22T08:44:21;25.70;99.90
3086;DHT22;52812;48.960;9.108;2023-07-22T08:46:55;25.60;99.90
3086;DHT22;52812;48.960;9.108;2023-07-22T08:49:21;26.00;99.90
3086;DHT22;52812;48.960;9.108;2023-07-22T08:51:47;25.50;99.90
3086;DHT22;52812;48.960;9.108;2023-07-22T08:54:13;25.80;99.90
3086;DHT22;52812;48.960;9.108;2023-07-22T08:56:39;25.60;99.90
3086;DHT22;52812;48.960;9.108;2023-07-22T08:59:06;25.80;99.90
3086;DHT22;52812;48.960;9.108;2023-07-22T09:01:32;26.00;99.90
3086;DHT22;52812;48.960;9.108;2023-07-22T09:03:59;25.80;99.90
3086;DHT22;52812;48.960;9.108;2023-07-22T09:06:28;25.80;99.90
3086;DHT22;52812;48.960;9.108;2023-07-22T09:08:55;25.50;99.90
3086;DHT22;52812;48.960;9.108;2023-07-22T09:11:21;25.40;99.90
3086;DHT22;52812;48.960;9.108;2023-07-22T09:13:47;25.10;99.90
3086;DHT22;52812;48.960;9.108;2023-07-22T09:16:13;24.90;99.90
3086;DHT22;52812;48.960;9.108;2023-07-22T09:18:39;24.80;99.90
3086;DHT22;52812;48.960;9.108;2023-07-22T09:21:04;24.80;99.90
3086;DHT22;52812;48.960;9.108;2023-07-22T09:23:34;24.80;99.90
3086;DHT22;52812;48.960;9.108;2023-07-22T09:26:14;24.50;99.90
3086;DHT22;52812;48.960;9.108;2023-07-22T09:31:21;24.80;99.90
3086;DHT22;52812;48.960;9.108;2023-07-22T09:33:47;24.90;99.90
3086;DHT22;52812;48.960;9.108;2023-07-22T09:36:13;24.90;99.90
3086;DHT22;52812;48.960;9.108;2023-07-22T09:38:39;25.10;99.90
3086;DHT22;52812;48.960;9.108;2023-07-22T09:41:05;25.20;99.90
3086;DHT22;52812;48.960;9.108;2023-07-22T09:43:30;25.40;99.90
3086;DHT22;52812;48.960;9.108;2023-07-22T09:46:06;25.10;99.90
3086;DHT22;52812;48.960;9.108;2023-07-22T09:48:42;25.30;99.90
3086;DHT22;52812;48.960;9.108;2023-07-22T09:51:15;25.50;99.90
3086;DHT22;52812;48.960;9.108;2023-07-22T09:53:58;25.50;99.90
3086;DHT22;52812;48.960;9.108;2023-07-22T09:56:24;25.20;99.90
3086;DHT22;52812;48.960;9.108;2023-07-22T09:58:51;24.90;99.90
3086;DHT22;52812;48.960;9.108;2023-07-22T10:01:20;24.90;99.90
3086;DHT22;52812;48.960;9.108;2023-07-22T10:03:54;25.10;99.90
3086;DHT22;52812;48.960;9.108;2023-07-22T10:06:28;25.30;99.90
3086;DHT22;52812;48.960;9.108;2023-07-22T10:08:56;25.80;99.90
3086;DHT22;52812;48.960;9.108;2023-07-22T10:11:23;26.00;99.90
3086;DHT22;52812;48.960;9.108;2023-07-22T10:13:52;26.10;99.90
3086;DHT22;52812;48.960;9.108;2023-07-22T10:16:18;26.10;99.90
3086;DHT22;52812;48.960;9.108;2023-07-22T10:18:45;25.80;99.90
3086;DHT22;52812;48.960;9.108;2023-07-22T10:21:12;25.50;99.90
3086;DHT22;52812;48.960;9.108;2023-07-22T10:23:38;25.70;99.90
3086;DHT22;52812;48.960;9.108;2023-07-22T10:26:05;25.80;99.90
3086;DHT22;52812;48.960;9.108;2023-07-22T10:28:31;26.20;99.90
3086;DHT22;52812;48.960;9.108;2023-07-22T10:30:58;26.70;99.90
3086;DHT22;52812;48.960;9.108;2023-07-22T10:33:24;26.50;99.90
3086;DHT22;52812;48.960;9.108;2023-07-22T10:36:08;26.40;99.90
3086;DHT22;52812;48.960;9.108;2023-07-22T10:38:35;26.30;99.90
3086;DHT22;52812;48.960;9.108;2023-07-22T10:41:04;25.80;99.90
3086;DHT22;52812;48.960;9.108;2023-07-22T10:43:36;25.80;99.90
3086;DHT22;52812;48.960;9.108;2023-07-22T10:46:09;25.80;99.90
3086;DHT22;52812;48.960;9.108;2023-07-22T10:48:38;26.00;99.90
3086;DHT22;52812;48.960;9.108;2023-07-22T10:51:11;26.40;99.90
3086;DHT22;52812;48.960;9.108;2023-07-22T10:53:47;26.40;99.90
3086;DHT22;52812;48.960;9.108;2023-07-22T10:56:20;26.60;99.90
3086;DHT22;52812;48.960;9.108;2023-07-22T11:04:28;26.60;99.00
3086;DHT22;52812;48.960;9.108;2023-07-22T11:07:04;26.20;99.90
3086;DHT22;52812;48.960;9.108;2023-07-22T11:12:00;25.40;99.90
3086;DHT22;52812;48.960;9.108;2023-07-22T11:14:27;25.40;99.90
3086;DHT22;52812;48.960;9.108;2023-07-22T11:16:54;25.30;99.90
3086;DHT22;52812;48.960;9.108;2023-07-22T11:19:23;25.20;99.90
3086;DHT22;52812;48.960;9.108;2023-07-22T11:21:50;25.20;99.90
3086;DHT22;52812;48.960;9.108;2023-07-22T11:24:17;25.60;99.90
3086;DHT22;52812;48.960;9.108;2023-07-22T11:26:44;25.90;99.90
3086;DHT22;52812;48.960;9.108;2023-07-22T11:29:10;25.80;99.90
3086;DHT22;52812;48.960;9.108;2023-07-22T11:31:38;25.60;99.90
3086;DHT22;52812;48.960;9.108;2023-07-22T11:34:08;25.70;99.90
3086;DHT22;52812;48.960;9.108;2023-07-22T11:36:34;25.60;99.90
3086;DHT22;52812;48.960;9.108;2023-07-22T11:39:12;25.30;99.90
3086;DHT22;52812;48.960;9.108;2023-07-22T11:41:39;25.30;99.90
3086;DHT22;52812;48.960;9.108;2023-07-22T11:44:07;25.40;99.90
3086;DHT22;52812;48.960;9.108;2023-07-22T11:49:36;25.30;99.90
3086;DHT22;52812;48.960;9.108;2023-07-22T11:52:04;25.70;99.90
3086;DHT22;52812;48.960;9.108;2023-07-22T11:54:32;25.80;99.90
3086;DHT22;52812;48.960;9.108;2023-07-22T11:57:30;25.50;99.90
3086;DHT22;52812;48.960;9.108;2023-07-22T11:59:56;25.30;99.90
3086;DHT22;52812;48.960;9.108;2023-07-22T12:02:28;25.50;99.90
3086;DHT22;52812;48.960;9.108;2023-07-22T12:07:27;25.80;99.90
3086;DHT22;52812;48.960;9.108;2023-07-22T12:09:54;26.10;99.90
3086;DHT22;52812;48.960;9.108;2023-07-22T12:12:21;26.40;99.90
3086;DHT22;52812;48.960;9.108;2023-07-22T12:14:46;26.70;99.90
3086;DHT22;52812;48.960;9.108;2023-07-22T12:17:12;26.80;99.90
3086;DHT22;52812;48.960;9.108;2023-07-22T12:19:38;27.00;99.90
3086;DHT22;52812;48.960;9.108;2023-07-22T12:22:03;27.10;98.80
3086;DHT22;52812;48.960;9.108;2023-07-22T12:24:30;26.90;99.70
3086;DHT22;52812;48.960;9.108;2023-07-22T12:26:55;26.70;99.90
3086;DHT22;52812;48.960;9.108;2023-07-22T12:29:21;26.20;99.90
3086;DHT22;52812;48.960;9.108;2023-07-22T12:31:47;26.10;99.20
3086;DHT22;52812;48.960;9.108;2023-07-22T12:34:13;26.40;99.90
3086;DHT22;52812;48.960;9.108;2023-07-22T12:36:40;26.90;99.90
3086;DHT22;52812;48.960;9.108;2023-07-22T12:39:05;27.20;99.90
3086;DHT22;52812;48.960;9.108;2023-07-22T12:41:31;26.90;98.80
3086;DHT22;52812;48.960;9.108;2023-07-22T12:43:57;26.70;98.60
3086;DHT22;52812;48.960;9.108;2023-07-22T12:46:22;26.60;99.30
3086;DHT22;52812;48.960;9.108;2023-07-22T12:48:48;26.50;98.00
3086;DHT22;52812;48.960;9.108;2023-07-22T12:51:14;26.50;99.50
3086;DHT22;52812;48.960;9.108;2023-07-22T12:53:39;26.50;99.00
3086;DHT22;52812;48.960;9.108;2023-07-22T12:56:05;26.60;99.30
3086;DHT22;52812;48.960;9.108;2023-07-22T12:58:31;26.40;98.80
3086;DHT22;52812;48.960;9.108;2023-07-22T13:00:57;26.30;99.80
3086;DHT22;52812;48.960;9.108;2023-07-22T13:03:23;26.00;98.60
3086;DHT22;52812;48.960;9.108;2023-07-22T13:05:49;26.10;99.90
3086;DHT22;52812;48.960;9.108;2023-07-22T13:08:14;26.00;98.20
3086;DHT22;52812;48.960;9.108;2023-07-22T13:10:40;26.00;98.10
3086;DHT22;52812;48.960;9.108;2023-07-22T13:13:10;25.90;98.90
3086;DHT22;52812;48.960;9.108;2023-07-22T13:15:36;26.00;99.40
3086;DHT22;52812;48.960;9.108;2023-07-22T13:18:02;26.10;99.10
3086;DHT22;52812;48.960;9.108;2023-07-22T13:20:29;26.20;99.10
3086;DHT22;52812;48.960;9.108;2023-07-22T13:22:55;26.10;99.20
3086;DHT22;52812;48.960;9.108;2023-07-22T13:25:21;26.20;98.20
3086;DHT22;52812;48.960;9.108;2023-07-22T13:27:47;26.00;98.50
3086;DHT22;52812;48.960;9.108;2023-07-22T13:30:13;25.90;98.10
3086;DHT22;52812;48.960;9.108;2023-07-22T13:32:39;25.90;98.10
3086;DHT22;52812;48.960;9.108;2023-07-22T13:35:05;25.80;97.70
3086;DHT22;52812;48.960;9.108;2023-07-22T13:37:30;25.70;97.90
3086;DHT22;52812;48.960;9.108;2023-07-22T13:39:56;25.70;97.80
3086;DHT22;52812;48.960;9.108;2023-07-22T13:42:23;25.70;97.90
3086;DHT22;52812;48.960;9.108;2023-07-22T13:44:49;25.80;97.80
3086;DHT22;52812;48.960;9.108;2023-07-22T13:47:15;26.00;98.20
3086;DHT22;52812;48.960;9.108;2023-07-22T13:49:40;26.00;96.50
3086;DHT22;52812;48.960;9.108;2023-07-22T13:52:06;26.00;97.10
3086;DHT22;52812;48.960;9.108;2023-07-22T13:54:31;26.00;97.20
3086;DHT22;52812;48.960;9.108;2023-07-22T13:56:57;25.80;96.70
3086;DHT22;52812;48.960;9.108;2023-07-22T13:59:23;25.70;96.50
3086;DHT22;52812;48.960;9.108;2023-07-22T14:01:48;25.80;96.50
3086;DHT22;52812;48.960;9.108;2023-07-22T14:04:14;26.00;97.60
3086;DHT22;52812;48.960;9.108;2023-07-22T14:06:40;26.00;95.90
3086;DHT22;52812;48.960;9.108;2023-07-22T14:09:05;25.90;96.80
3086;DHT22;52812;48.960;9.108;2023-07-22T14:11:31;25.90;96.70
3086;DHT22;52812;48.960;9.108;2023-07-22T14:13:56;25.90;96.10
3086;DHT22;52812;48.960;9.108;2023-07-22T14:16:22;26.10;98.30
3086;DHT22;52812;48.960;9.108;2023-07-22T14:18:47;26.20;95.90
3086;DHT22;52812;48.960;9.108;2023-07-22T14:21:13;26.20;97.00
3086;DHT22;52812;48.960;9.108;2023-07-22T14:23:39;26.10;96.30
3086;DHT22;52812;48.960;9.108;2023-07-22T14:26:05;26.10;96.60
3086;DHT22;52812;48.960;9.108;2023-07-22T14:28:30;26.00;96.40
3086;DHT22;52812;48.960;9.108;2023-07-22T14:30:56;26.20;96.60
3086;DHT22;52812;48.960;9.108;2023-07-22T14:33:22;26.20;95.80
3086;DHT22;52812;48.960;9.108;2023-07-22T14:35:47;26.20;96.10
3086;DHT22;52812;48.960;9.108;2023-07-22T14:38:13;26.20;96.00
3086;DHT22;52812;48.960;9.108;2023-07-22T14:40:38;26.10;95.80
3086;DHT22;52812;48.960;9.108;2023-07-22T14:43:04;26.10;95.80
3086;DHT22;52812;48.960;9.108;2023-07-22T14:45:30;26.10;95.80
3086;DHT22;52812;48.960;9.108;2023-07-22T14:47:55;26.10;95.40
3086;DHT22;52812;48.960;9.108;2023-07-22T14:50:22;26.20;96.30
3086;DHT22;52812;48.960;9.108;2023-07-22T14:52:47;26.20;96.70
3086;DHT22;52812;48.960;9.108;2023-07-22T14:55:13;26.20;96.10
3086;DHT22;52812;48.960;9.108;2023-07-22T14:57:38;26.10;95.40
3086;DHT22;52812;48.960;9.108;2023-07-22T15:00:06;26.00;95.00
3086;DHT22;52812;48.960;9.108;2023-07-22T15:02:31;25.90;95.50
3086;DHT22;52812;48.960;9.108;2023-07-22T15:04:57;25.70;94.80
3086;DHT22;52812;48.960;9.108;2023-07-22T15:07:23;25.60;95.70
3086;DHT22;52812;48.960;9.108;2023-07-22T15:09:48;25.50;96.00
3086;DHT22;52812;48.960;9.108;2023-07-22T15:12:14;25.30;95.90
3086;DHT22;52812;48.960;9.108;2023-07-22T15:14:40;25.20;95.60
3086;DHT22;52812;48.960;9.108;2023-07-22T15:17:05;25.20;95.80
3086;DHT22;52812;48.960;9.108;2023-07-22T15:19:31;25.30;96.40
3086;DHT22;52812;48.960;9.108;2023-07-22T15:21:57;25.40;96.30
3086;DHT22;52812;48.960;9.108;2023-07-22T15:24:22;25.50;95.80
3086;DHT22;52812;48.960;9.108;2023-07-22T15:26:48;25.70;96.00
3086;DHT22;52812;48.960;9.108;2023-07-22T15:29:14;25.70;95.30
3086;DHT22;52812;48.960;9.108;2023-07-22T15:31:39;25.70;95.30
3086;DHT22;52812;48.960;9.108;2023-07-22T15:34:05;25.60;95.10
3086;DHT22;52812;48.960;9.108;2023-07-22T15:36:30;25.60;96.20
3086;DHT22;52812;48.960;9.108;2023-07-22T15:38:56;25.60;95.50
3086;DHT22;52812;48.960;9.108;2023-07-22T15:41:22;25.70;95.70
3086;DHT22;52812;48.960;9.108;2023-07-22T15:43:48;25.70;94.80
3086;DHT22;52812;48.960;9.108;2023-07-22T15:46:13;25.70;95.00
3086;DHT22;52812;48.960;9.108;2023-07-22T15:48:39;25.60;94.70
3086;DHT22;52812;48.960;9.108;2023-07-22T15:51:05;25.30;94.80
3086;DHT22;52812;48.960;9.108;2023-07-22T15:53:31;25.30;94.90
3086;DHT22;52812;48.960;9.108;2023-07-22T15:55:57;25.20;95.10